^^
Your Local Weather - Clay, NY Station Historical Data
Daily Summary for September 11, 2017 Units:  English    Metric   Both
« Previous Day
Next Day »
Daily Weekly Monthly Yearly Custom
  High: Low: Average:
Temperature: 72.3 °F 41.8 °F 55.8 °F
Dew Point: 57.6 °F 40.2 °F 49.2 °F
Humidity: 95% 42% 81%
Wind Speed: 3.0mph 0.0mph 0.6mph
Wind Gust: 6.0mph - -
Wind- - SSW
Pressure: 30.40 in 30.12 in -
Precipitation: 0.00 in    
Historical Graphs
 
 
Tabular Data for September 11, 2017
Time Temperature Dew Point Pressure Wind Wind Speed Wind Gust Humidity Rainfall Rate (Hourly) solar
00:04 47.1 °F 44.9 °F 30.39 in Calm     92% 0.00 in 0 W/m2
00:10 47.1 °F 44.9 °F 30.40 in Calm     92% 0.00 in 0 W/m2
00:16 46.8 °F 44.6 °F 30.40 in Calm     92% 0.00 in 0 W/m2
00:22 46.7 °F 44.5 °F 30.40 in Calm     92% 0.00 in 0 W/m2
00:28 46.5 °F 44.3 °F 30.40 in Calm     92% 0.00 in 0 W/m2
00:34 46.4 °F 44.2 °F 30.40 in Calm     92% 0.00 in 0 W/m2
00:40 46.3 °F 44.1 °F 30.40 in Calm     92% 0.00 in 0 W/m2
00:46 46.1 °F 43.9 °F 30.40 in Calm     92% 0.00 in 0 W/m2
00:52 46.0 °F 43.8 °F 30.40 in Calm     92% 0.00 in 0 W/m2
00:58 46.0 °F 43.8 °F 30.40 in Calm     92% 0.00 in 0 W/m2
01:04 46.2 °F 44.3 °F 30.39 in Calm     93% 0.00 in 0 W/m2
01:10 46.3 °F 44.4 °F 30.39 in Calm     93% 0.00 in 0 W/m2
01:16 46.3 °F 44.4 °F 30.39 in Calm     93% 0.00 in 0 W/m2
01:22 46.1 °F 44.2 °F 30.39 in Calm     93% 0.00 in 0 W/m2
01:28 45.8 °F 43.9 °F 30.39 in Calm     93% 0.00 in 0 W/m2
01:34 45.6 °F 43.7 °F 30.39 in Calm     93% 0.00 in 0 W/m2
01:40 45.5 °F 43.6 °F 30.39 in Calm     93% 0.00 in 0 W/m2
01:46 45.3 °F 43.4 °F 30.39 in Calm     93% 0.00 in 0 W/m2
01:52 45.4 °F 43.5 °F 30.38 in Calm     93% 0.00 in 0 W/m2
01:58 45.3 °F 43.4 °F 30.38 in Calm     93% 0.00 in 0 W/m2
02:04 45.2 °F 43.3 °F 30.38 in Calm     93% 0.00 in 0 W/m2
02:10 44.9 °F 43.0 °F 30.38 in Calm     93% 0.00 in 0 W/m2
02:16 44.9 °F 43.0 °F 30.38 in Calm     93% 0.00 in 0 W/m2
02:22 45.3 °F 43.4 °F 30.38 in Calm     93% 0.00 in 0 W/m2
02:28 45.2 °F 43.3 °F 30.38 in Calm     93% 0.00 in 0 W/m2
02:34 45.2 °F 43.3 °F 30.38 in Calm     93% 0.00 in 0 W/m2
02:40 45.2 °F 43.3 °F 30.38 in Calm     93% 0.00 in 0 W/m2
02:46 45.1 °F 43.2 °F 30.38 in Calm     93% 0.00 in 0 W/m2
02:52 45.1 °F 43.2 °F 30.38 in Calm     93% 0.00 in 0 W/m2
02:58 45.0 °F 43.1 °F 30.37 in Calm     93% 0.00 in 0 W/m2
03:04 44.9 °F 43.0 °F 30.37 in Calm     93% 0.00 in 0 W/m2
03:10 44.9 °F 43.0 °F 30.36 in Calm     93% 0.00 in 0 W/m2
03:16 45.1 °F 43.2 °F 30.36 in Calm     93% 0.00 in 0 W/m2
03:22 45.0 °F 43.1 °F 30.36 in Calm     93% 0.00 in 0 W/m2
03:28 44.8 °F 42.9 °F 30.36 in Calm     93% 0.00 in 0 W/m2
03:34 44.6 °F 42.7 °F 30.36 in Calm     93% 0.00 in 0 W/m2
03:40 44.4 °F 42.5 °F 30.36 in Calm     93% 0.00 in 0 W/m2
03:46 44.3 °F 42.4 °F 30.36 in Calm     93% 0.00 in 0 W/m2
03:52 44.3 °F 42.7 °F 30.36 in Calm     94% 0.00 in 0 W/m2
03:58 44.1 °F 42.5 °F 30.35 in Calm     94% 0.00 in 0 W/m2
04:04 43.9 °F 42.0 °F 30.35 in Calm     93% 0.00 in 0 W/m2
04:10 43.6 °F 42.0 °F 30.35 in Calm     94% 0.00 in 0 W/m2
04:16 43.5 °F 41.9 °F 30.35 in Calm     94% 0.00 in 0 W/m2
04:22 43.4 °F 41.8 °F 30.35 in Calm     94% 0.00 in 0 W/m2
04:28 43.5 °F 41.9 °F 30.36 in Calm     94% 0.00 in 0 W/m2
04:34 43.5 °F 41.6 °F 30.35 in Calm     93% 0.00 in 0 W/m2
04:40 43.6 °F 42.0 °F 30.35 in Calm     94% 0.00 in 0 W/m2
04:46 43.5 °F 41.9 °F 30.35 in Calm     94% 0.00 in 0 W/m2
04:52 43.4 °F 41.8 °F 30.35 in Calm     94% 0.00 in 0 W/m2
04:58 43.5 °F 41.9 °F 30.34 in Calm     94% 0.00 in 0 W/m2
05:04 43.4 °F 41.8 °F 30.34 in Calm     94% 0.00 in 0 W/m2
05:10 43.2 °F 41.6 °F 30.34 in Calm     94% 0.00 in 0 W/m2
05:16 43.2 °F 41.6 °F 30.34 in Calm     94% 0.00 in 0 W/m2
05:22 43.1 °F 41.5 °F 30.34 in Calm     94% 0.00 in 0 W/m2
05:28 43.0 °F 41.4 °F 30.34 in Calm     94% 0.00 in 0 W/m2
05:34 42.9 °F 41.3 °F 30.33 in Calm     94% 0.00 in 0 W/m2
05:40 42.9 °F 41.3 °F 30.33 in Calm     94% 0.00 in 0 W/m2
05:46 42.7 °F 41.1 °F 30.33 in Calm     94% 0.00 in 0 W/m2
05:52 42.7 °F 41.1 °F 30.33 in Calm     94% 0.00 in 0 W/m2
05:58 43.1 °F 41.5 °F 30.33 in Calm     94% 0.00 in 0 W/m2
06:04 43.2 °F 41.6 °F 30.33 in Calm     94% 0.00 in 0 W/m2
06:10 43.0 °F 41.4 °F 30.33 in Calm     94% 0.00 in 0 W/m2
06:16 42.8 °F 41.2 °F 30.33 in Calm     94% 0.00 in 0 W/m2
06:22 42.6 °F 41.0 °F 30.33 in Calm     94% 0.00 in 0 W/m2
06:28 42.4 °F 40.8 °F 30.34 in Calm     94% 0.00 in 0 W/m2
06:34 42.4 °F 40.8 °F 30.34 in Calm     94% 0.00 in 0 W/m2
06:40 42.4 °F 40.8 °F 30.34 in Calm     94% 0.00 in 0 W/m2
06:46 42.2 °F 40.6 °F 30.34 in Calm     94% 0.00 in 7 W/m2
06:52 42.0 °F 40.4 °F 30.35 in Calm     94% 0.00 in 9 W/m2
06:58 41.8 °F 40.2 °F 30.35 in Calm     94% 0.00 in 12 W/m2
07:04 42.0 °F 40.4 °F 30.34 in Calm     94% 0.00 in 14 W/m2
07:10 42.2 °F 40.6 °F 30.35 in Calm     94% 0.00 in 19 W/m2
07:16 42.2 °F 40.6 °F 30.35 in Calm     94% 0.00 in 23 W/m2
07:22 42.2 °F 40.6 °F 30.35 in Calm     94% 0.00 in 26 W/m2
07:28 42.4 °F 40.8 °F 30.35 in Calm     94% 0.00 in 30 W/m2
07:34 42.7 °F 41.1 °F 30.35 in Calm     94% 0.00 in 33 W/m2
07:40 43.0 °F 41.4 °F 30.35 in Calm     94% 0.00 in 39 W/m2
07:46 43.5 °F 41.9 °F 30.35 in Calm     94% 0.00 in 47 W/m2
07:52 43.8 °F 42.2 °F 30.36 in Calm     94% 0.00 in 58 W/m2
07:58 44.5 °F 42.9 °F 30.36 in Calm     94% 0.00 in 91 W/m2
08:04 45.4 °F 43.8 °F 30.36 in Calm     94% 0.00 in 90 W/m2
08:10 46.2 °F 44.6 °F 30.36 in Calm     94% 0.00 in 56 W/m2
08:16 46.7 °F 45.3 °F 30.36 in Calm     95% 0.00 in 60 W/m2
08:22 47.5 °F 45.9 °F 30.36 in Calm   3.0 mph 94% 0.00 in 116 W/m2
08:28 48.1 °F 46.7 °F 30.36 in Calm   3.0 mph 95% 0.00 in 67 W/m2
08:34 48.5 °F 47.1 °F 30.36 in Calm     95% 0.00 in 70 W/m2
08:40 48.8 °F 47.4 °F 30.35 in Calm     95% 0.00 in 63 W/m2
08:46 49.3 °F 47.9 °F 30.35 in Calm     95% 0.00 in 84 W/m2
08:52 49.8 °F 48.4 °F 30.35 in Calm     95% 0.00 in 67 W/m2
08:58 50.2 °F 48.8 °F 30.35 in Calm     95% 0.00 in 74 W/m2
09:04 51.0 °F 49.6 °F 30.35 in Calm   1.0 mph 95% 0.00 in 74 W/m2
09:10 51.6 °F 50.2 °F 30.36 in Calm     95% 0.00 in 102 W/m2
09:16 52.2 °F 50.5 °F 30.36 in Calm     94% 0.00 in 91 W/m2
09:22 53.3 °F 51.6 °F 30.36 in South 1.0 mph 4.0 mph 94% 0.00 in 79 W/m2
09:28 54.0 °F 52.0 °F 30.36 in SSE 2.0 mph 2.0 mph 93% 0.00 in 72 W/m2
09:34 54.4 °F 51.2 °F 30.36 in SSE 1.0 mph 2.0 mph 89% 0.00 in 86 W/m2
09:40 55.1 °F 51.3 °F 30.36 in SSE 1.0 mph 1.0 mph 87% 0.00 in 213 W/m2
09:46 55.9 °F 50.8 °F 30.35 in South 1.0 mph 1.0 mph 83% 0.00 in 464 W/m2
09:52 57.7 °F 50.9 °F 30.35 in Calm   1.0 mph 78% 0.00 in 482 W/m2
09:58 58.2 °F 50.3 °F 30.35 in Calm     75% 0.00 in 501 W/m2
10:04 58.5 °F 50.2 °F 30.35 in Calm     74% 0.00 in 526 W/m2
10:10 59.2 °F 50.2 °F 30.34 in Calm   2.0 mph 72% 0.00 in 554 W/m2
10:16 59.9 °F 50.1 °F 30.33 in South 1.0 mph 2.0 mph 70% 0.00 in 568 W/m2
10:22 60.8 °F 51.0 °F 30.33 in Calm   1.0 mph 70% 0.00 in 594 W/m2
10:28 60.6 °F 51.1 °F 30.33 in North 1.0 mph 3.0 mph 71% 0.00 in 603 W/m2
10:34 60.9 °F 51.4 °F 30.32 in North 2.0 mph 5.0 mph 71% 0.00 in 633 W/m2
10:40 61.6 °F 51.7 °F 30.32 in NNW 2.0 mph 2.0 mph 70% 0.00 in 643 W/m2
10:46 61.5 °F 51.6 °F 30.32 in NNE 1.0 mph 2.0 mph 70% 0.00 in 654 W/m2
10:52 61.7 °F 51.0 °F 30.32 in ENE 2.0 mph 3.0 mph 68% 0.00 in 659 W/m2
10:58 62.0 °F 52.5 °F 30.32 in SE 2.0 mph 4.0 mph 71% 0.00 in 675 W/m2
11:04 62.5 °F 52.2 °F 30.31 in ENE 2.0 mph 3.0 mph 69% 0.00 in 691 W/m2
11:10 63.3 °F 52.6 °F 30.31 in East 1.0 mph 1.0 mph 68% 0.00 in 700 W/m2
11:16 62.9 °F 51.8 °F 30.32 in SSE 1.0 mph 4.0 mph 67% 0.00 in 717 W/m2
11:22 63.4 °F 54.6 °F 30.31 in South 2.0 mph 2.0 mph 73% 0.00 in 717 W/m2
11:28 64.8 °F 54.4 °F 30.31 in WSW 1.0 mph 2.0 mph 69% 0.00 in 733 W/m2
11:34 65.2 °F 54.0 °F 30.31 in WSW 1.0 mph 3.0 mph 67% 0.00 in 744 W/m2
11:40 65.1 °F 54.7 °F 30.30 in Calm     69% 0.00 in 754 W/m2
11:46 66.6 °F 55.7 °F 30.30 in Calm     68% 0.00 in 758 W/m2
11:52 66.4 °F 55.1 °F 30.30 in NNW 1.0 mph 2.0 mph 67% 0.00 in 763 W/m2
11:58 66.8 °F 53.8 °F 30.30 in North 1.0 mph 4.0 mph 63% 0.00 in 775 W/m2
12:04 65.5 °F 51.2 °F 30.30 in NNE 1.0 mph 2.0 mph 60% 0.00 in 763 W/m2
12:10 65.2 °F 53.1 °F 30.30 in NNE 1.0 mph 2.0 mph 65% 0.00 in 784 W/m2
12:16 65.2 °F 51.8 °F 30.29 in NNE 2.0 mph 2.0 mph 62% 0.00 in 788 W/m2
12:22 66.7 °F 55.4 °F 30.28 in NNE 1.0 mph 1.0 mph 67% 0.00 in 796 W/m2
12:28 66.8 °F 53.4 °F 30.28 in Calm   3.0 mph 62% 0.00 in 809 W/m2
12:34 67.7 °F 55.9 °F 30.28 in NNE 1.0 mph 2.0 mph 66% 0.00 in 791 W/m2
12:40 68.1 °F 56.3 °F 30.28 in NNE 1.0 mph 1.0 mph 66% 0.00 in 789 W/m2
12:46 67.4 °F 53.9 °F 30.27 in SW 1.0 mph 3.0 mph 62% 0.00 in 742 W/m2
12:52 67.4 °F 52.6 °F 30.27 in SW 2.0 mph 3.0 mph 59% 0.00 in 814 W/m2
12:58 67.8 °F 54.3 °F 30.27 in SW 1.0 mph 3.0 mph 62% 0.00 in 803 W/m2
13:04 68.1 °F 52.3 °F 30.27 in SW 1.0 mph 1.0 mph 57% 0.00 in 770 W/m2
13:10 69.5 °F 53.6 °F 30.27 in NW 1.0 mph 3.0 mph 57% 0.00 in 761 W/m2
13:16 69.0 °F 52.2 °F 30.27 in North 2.0 mph 4.0 mph 55% 0.00 in 817 W/m2
13:18 68.5 °F 50.7 °F 30.26 in North 3.0 mph 4.0 mph 53% 0.00 in 714 W/m2
13:24 68.5 °F 50.7 °F 30.26 in North 2.0 mph 3.0 mph 53% 0.00 in 636 W/m2
13:30 68.4 °F 50.6 °F 30.25 in NNE 2.0 mph 2.0 mph 53% 0.00 in 666 W/m2
13:36 68.8 °F 52.0 °F 30.25 in East 2.0 mph 2.0 mph 55% 0.00 in 763 W/m2
13:42 69.3 °F 53.9 °F 30.25 in SSW 1.0 mph 1.0 mph 58% 0.00 in 788 W/m2
13:48 70.0 °F 51.6 °F 30.25 in NNW 1.0 mph 2.0 mph 52% 0.00 in 793 W/m2
13:54 70.1 °F 53.7 °F 30.25 in NNW 1.0 mph 1.0 mph 56% 0.00 in 761 W/m2
14:00 69.7 °F 51.8 °F 30.25 in NNW 1.0 mph 1.0 mph 53% 0.00 in 795 W/m2
14:06 70.4 °F 53.5 °F 30.24 in North 1.0 mph 2.0 mph 55% 0.00 in 766 W/m2
14:14 70.1 °F 51.7 °F 30.24 in North 2.0 mph 3.0 mph 52% 0.00 in 733 W/m2
14:20 70.3 °F 53.4 °F 30.24 in NNE 2.0 mph 2.0 mph 55% 0.00 in 554 W/m2
14:26 71.3 °F 52.8 °F 30.24 in NNE 1.0 mph 2.0 mph 52% 0.00 in 571 W/m2
14:32 71.5 °F 52.9 °F 30.23 in WNW 1.0 mph 2.0 mph 52% 0.00 in 756 W/m2
14:38 71.2 °F 52.7 °F 30.23 in West 1.0 mph 2.0 mph 52% 0.00 in 670 W/m2
14:44 71.0 °F 49.2 °F 30.23 in West 1.0 mph 2.0 mph 46% 0.00 in 737 W/m2
14:50 71.8 °F 49.9 °F 30.23 in WSW 1.0 mph 1.0 mph 46% 0.00 in 663 W/m2
14:56 71.3 °F 47.0 °F 30.23 in WNW 1.0 mph 2.0 mph 42% 0.00 in 733 W/m2
15:02 71.6 °F 49.7 °F 30.23 in North 1.0 mph 1.0 mph 46% 0.00 in 693 W/m2
15:08 72.3 °F 52.6 °F 30.22 in North 1.0 mph 2.0 mph 50% 0.00 in 659 W/m2
15:16 71.9 °F 52.8 °F 30.22 in NNE 1.0 mph 2.0 mph 51% 0.00 in 666 W/m2
15:22 71.5 °F 52.4 °F 30.22 in North 3.0 mph 3.0 mph 51% 0.00 in 636 W/m2
15:28 71.6 °F 53.6 °F 30.22 in NNE 3.0 mph 4.0 mph 53% 0.00 in 613 W/m2
15:34 71.9 °F 50.0 °F 30.22 in NNW 2.0 mph 3.0 mph 46% 0.00 in 626 W/m2
15:40 71.8 °F 50.5 °F 30.22 in NW 2.0 mph 2.0 mph 47% 0.00 in 599 W/m2
15:46 71.8 °F 51.6 °F 30.22 in NW 3.0 mph 4.0 mph 49% 0.00 in 584 W/m2
15:52 72.2 °F 53.6 °F 30.22 in WNW 2.0 mph 3.0 mph 52% 0.00 in 571 W/m2
15:58 71.8 °F 53.2 °F 30.22 in NNW 2.0 mph 3.0 mph 52% 0.00 in 548 W/m2
16:04 71.8 °F 53.7 °F 30.21 in NNE 1.0 mph 3.0 mph 53% 0.00 in 536 W/m2
16:10 71.7 °F 52.6 °F 30.21 in North 2.0 mph 2.0 mph 51% 0.00 in 476 W/m2
16:16 72.1 °F 55.0 °F 30.20 in North 1.0 mph 2.0 mph 55% 0.00 in 501 W/m2
16:22 72.1 °F 54.5 °F 30.20 in North 1.0 mph 1.0 mph 54% 0.00 in 446 W/m2
16:28 71.2 °F 56.6 °F 30.20 in North 2.0 mph 5.0 mph 60% 0.00 in 457 W/m2
16:34 70.6 °F 56.9 °F 30.20 in NW 3.0 mph 5.0 mph 62% 0.00 in 448 W/m2
16:40 70.0 °F 57.3 °F 30.20 in North 3.0 mph 3.0 mph 64% 0.00 in 425 W/m2
16:46 69.5 °F 57.2 °F 30.20 in WNW 3.0 mph 6.0 mph 65% 0.00 in 411 W/m2
16:52 69.2 °F 57.4 °F 30.19 in NW 3.0 mph 4.0 mph 66% 0.00 in 394 W/m2
16:58 69.5 °F 57.6 °F 30.19 in NNE 2.0 mph 4.0 mph 66% 0.00 in 308 W/m2
17:04 69.1 °F 56.8 °F 30.19 in NNW 2.0 mph 4.0 mph 65% 0.00 in 253 W/m2
17:10 68.6 °F 56.8 °F 30.19 in North 3.0 mph 3.0 mph 66% 0.00 in 318 W/m2
17:16 68.6 °F 56.8 °F 30.19 in North 3.0 mph 6.0 mph 66% 0.00 in 274 W/m2
17:22 68.6 °F 57.2 °F 30.19 in North 3.0 mph 3.0 mph 67% 0.00 in 308 W/m2
17:28 68.2 °F 56.4 °F 30.19 in NNW 3.0 mph 5.0 mph 66% 0.00 in 206 W/m2
17:34 68.1 °F 56.7 °F 30.19 in NNW 2.0 mph 3.0 mph 67% 0.00 in 278 W/m2
17:40 67.7 °F 56.8 °F 30.19 in NW 2.0 mph 3.0 mph 68% 0.00 in 128 W/m2
17:46 67.4 °F 56.5 °F 30.19 in NW 3.0 mph 5.0 mph 68% 0.00 in 100 W/m2
17:52 67.2 °F 56.3 °F 30.19 in NW 2.0 mph 2.0 mph 68% 0.00 in 72 W/m2
17:58 67.1 °F 56.2 °F 30.19 in WNW 2.0 mph 3.0 mph 68% 0.00 in 132 W/m2
18:04 67.0 °F 56.5 °F 30.19 in WNW 2.0 mph 4.0 mph 69% 0.00 in 63 W/m2
18:10 66.9 °F 56.8 °F 30.18 in NW 1.0 mph 2.0 mph 70% 0.00 in 77 W/m2
18:16 66.4 °F 55.9 °F 30.18 in NNW 2.0 mph 2.0 mph 69% 0.00 in 42 W/m2
18:22 66.0 °F 55.9 °F 30.18 in North 2.0 mph 2.0 mph 70% 0.00 in 40 W/m2
18:28 65.6 °F 55.9 °F 30.17 in North 1.0 mph 2.0 mph 71% 0.00 in 37 W/m2
18:34 65.4 °F 56.1 °F 30.17 in Calm   1.0 mph 72% 0.00 in 39 W/m2
18:40 65.1 °F 56.2 °F 30.17 in Calm     73% 0.00 in 35 W/m2
18:46 64.9 °F 56.4 °F 30.17 in Calm     74% 0.00 in 26 W/m2
18:52 64.6 °F 56.5 °F 30.17 in Calm     75% 0.00 in 23 W/m2
18:58 64.1 °F 56.4 °F 30.17 in Calm     76% 0.00 in 18 W/m2
19:04 63.1 °F 56.5 °F 30.17 in Calm     79% 0.00 in 14 W/m2
19:10 62.1 °F 56.2 °F 30.17 in Calm     81% 0.00 in 11 W/m2
19:16 61.5 °F 56.0 °F 30.17 in Calm     82% 0.00 in 7 W/m2
19:22 60.8 °F 55.6 °F 30.17 in Calm     83% 0.00 in 0 W/m2
19:28 60.4 °F 55.5 °F 30.17 in Calm     84% 0.00 in 0 W/m2
19:34 59.9 °F 55.4 °F 30.16 in Calm     85% 0.00 in 0 W/m2
19:40 59.3 °F 55.1 °F 30.16 in Calm     86% 0.00 in 0 W/m2
19:46 58.7 °F 54.8 °F 30.16 in Calm     87% 0.00 in 0 W/m2
19:52 58.3 °F 54.4 °F 30.16 in Calm     87% 0.00 in 0 W/m2
19:58 57.9 °F 54.4 °F 30.16 in Calm     88% 0.00 in 0 W/m2
20:04 57.6 °F 54.1 °F 30.16 in Calm     88% 0.00 in 0 W/m2
20:10 57.3 °F 53.8 °F 30.16 in Calm     88% 0.00 in 0 W/m2
20:16 57.0 °F 53.8 °F 30.16 in Calm     89% 0.00 in 0 W/m2
20:24 56.5 °F 53.3 °F 30.16 in Calm     89% 0.00 in 0 W/m2
20:30 56.2 °F 53.3 °F 30.16 in Calm     90% 0.00 in 0 W/m2
20:36 55.9 °F 53.0 °F 30.16 in Calm     90% 0.00 in 0 W/m2
20:42 55.6 °F 52.7 °F 30.16 in Calm     90% 0.00 in 0 W/m2
20:48 55.3 °F 52.4 °F 30.16 in Calm     90% 0.00 in 0 W/m2
20:54 55.1 °F 52.2 °F 30.16 in Calm     90% 0.00 in 0 W/m2
21:00 55.0 °F 52.1 °F 30.16 in Calm     90% 0.00 in 0 W/m2
21:06 54.8 °F 52.2 °F 30.16 in Calm     91% 0.00 in 0 W/m2
21:12 54.7 °F 52.1 °F 30.16 in Calm     91% 0.00 in 0 W/m2
21:18 54.4 °F 51.8 °F 30.16 in Calm     91% 0.00 in 0 W/m2
21:24 54.3 °F 51.7 °F 30.15 in Calm     91% 0.00 in 0 W/m2
21:28 54.2 °F 51.6 °F 30.15 in Calm     91% 0.00 in 0 W/m2
21:34 54.1 °F 51.5 °F 30.15 in Calm     91% 0.00 in 0 W/m2
21:40 53.9 °F 51.6 °F 30.15 in Calm     92% 0.00 in 0 W/m2
21:46 53.7 °F 51.1 °F 30.14 in Calm     91% 0.00 in 0 W/m2
21:52 53.5 °F 51.2 °F 30.14 in Calm     92% 0.00 in 0 W/m2
21:58 53.4 °F 51.1 °F 30.14 in Calm     92% 0.00 in 0 W/m2
22:04 53.2 °F 50.9 °F 30.14 in Calm     92% 0.00 in 0 W/m2
22:10 53.1 °F 50.8 °F 30.14 in Calm     92% 0.00 in 0 W/m2
22:16 53.0 °F 50.7 °F 30.14 in Calm     92% 0.00 in 0 W/m2
22:22 52.9 °F 50.6 °F 30.14 in Calm     92% 0.00 in 0 W/m2
22:28 52.9 °F 50.6 °F 30.14 in Calm     92% 0.00 in 0 W/m2
22:34 52.9 °F 50.6 °F 30.14 in Calm     92% 0.00 in 0 W/m2
22:40 53.1 °F 51.1 °F 30.14 in Calm     93% 0.00 in 0 W/m2
22:46 53.0 °F 50.7 °F 30.14 in Calm     92% 0.00 in 0 W/m2
22:52 52.8 °F 50.5 °F 30.14 in Calm     92% 0.00 in 0 W/m2
22:58 52.5 °F 50.5 °F 30.13 in Calm     93% 0.00 in 0 W/m2
23:06 52.4 °F 50.4 °F 30.13 in Calm     93% 0.00 in 0 W/m2
23:16 52.3 °F 50.3 °F 30.13 in Calm     93% 0.00 in 0 W/m2
23:22 52.1 °F 50.1 °F 30.13 in Calm     93% 0.00 in 0 W/m2
23:28 52.0 °F 50.0 °F 30.13 in Calm     93% 0.00 in 0 W/m2
23:32 51.9 °F 49.9 °F 30.13 in Calm     93% 0.00 in 0 W/m2
23:38 51.9 °F 49.9 °F 30.13 in Calm     93% 0.00 in 0 W/m2
23:42 51.8 °F 49.8 °F 30.13 in Calm     93% 0.00 in 0 W/m2
23:48 51.7 °F 49.7 °F 30.12 in Calm     93% 0.00 in 0 W/m2
23:54 51.5 °F 49.5 °F 30.12 in Calm     93% 0.00 in 0 W/m2
Country Meadow, Clay, NY, USA
Compliments of Weather Underground - 2 mb